Time;durP1;ratioP1;P1;durP2;ratioP2;P2;SDS_P1;SDS_P2;PMS_P1;PMS_P2;Temp;Humidity;BMP_temperature;BMP_pressure;BME280_temperature;BME280_humidity;BME280_pressure;Samples;Min_cycle;Max_cycle;Signal;HPM_P1;HPM_P2
2022/06/21 00:01:33;;;;;;;6.70;1.92;;;;;;;;;;5348056;27;20019;-70
2022/06/21 00:04:04;;;;;;;6.35;2.17;;;;;;;;;;5348575;27;20015;-70
2022/06/21 00:06:35;;;;;;;8.07;2.60;;;;;;;;;;5348742;27;20462;-70
2022/06/21 00:09:09;;;;;;;7.63;2.58;;;;;;;;;;5347887;27;20047;-70
2022/06/21 00:11:41;;;;;;;9.35;2.60;;;;;;;;;;5348549;27;20020;-69
2022/06/21 00:14:12;;;;;;;7.05;2.67;;;;;;;;;;5348430;27;20015;-70
2022/06/21 00:16:43;;;;;;;6.05;2.85;;;;;;;;;;5347627;27;20027;-69
2022/06/21 00:19:21;;;;;;;6.35;2.47;;;;;;;;;;5348426;27;20015;-69
2022/06/21 00:21:52;;;;;;;10.93;2.58;;;;;;;;;;5348614;27;20043;-70
2022/06/21 00:24:23;;;;;;;9.05;2.72;;;;;;;;;;5347277;27;20034;-70
2022/06/21 00:26:55;;;;;;;6.45;2.80;;;;;;;;;;5348455;27;20019;-70
2022/06/21 00:29:26;;;;;;;9.20;2.67;;;;;;;;;;5347126;27;20015;-70
2022/06/21 00:31:57;;;;;;;7.68;2.78;;;;;;;;;;5348511;27;20277;-70
2022/06/21 00:34:29;;;;;;;16.05;3.42;;;;;;;;;;5347708;27;20011;-70
2022/06/21 00:37:00;;;;;;;8.20;3.33;;;;;;;;;;5347595;27;20381;-70
2022/06/21 00:39:31;;;;;;;8.88;2.58;;;;;;;;;;5347842;27;20011;-70
2022/06/21 00:42:12;;;;;;;9.33;3.00;;;;;;;;;;5348203;27;20027;-70
2022/06/21 00:44:46;;;;;;;10.18;3.33;;;;;;;;;;5347319;27;20738;-70
2022/06/21 00:47:29;;;;;;;7.13;2.97;;;;;;;;;;5347802;27;20023;-69
2022/06/21 00:50:02;;;;;;;8.05;2.75;;;;;;;;;;5347772;27;20019;-70
2022/06/21 00:52:33;;;;;;;8.73;2.50;;;;;;;;;;5347009;27;20019;-70
2022/06/21 00:55:13;;;;;;;9.50;3.45;;;;;;;;;;5347364;27;20018;-70
2022/06/21 00:57:52;;;;;;;7.32;3.10;;;;;;;;;;5346761;27;20344;-70
2022/06/21 01:00:30;;;;;;;7.20;2.88;;;;;;;;;;5347054;27;20103;-70
2022/06/21 01:03:04;;;;;;;5.55;2.28;;;;;;;;;;5347229;27;20027;-70
2022/06/21 01:05:37;;;;;;;13.20;3.10;;;;;;;;;;5346646;27;20015;-70
2022/06/21 01:08:10;;;;;;;6.97;3.25;;;;;;;;;;5347394;27;20019;-70
2022/06/21 01:10:41;;;;;;;8.93;3.65;;;;;;;;;;5347319;27;20046;-70
2022/06/21 01:13:17;;;;;;;9.68;3.53;;;;;;;;;;5346737;27;20053;-70
2022/06/21 01:15:50;;;;;;;11.32;3.40;;;;;;;;;;5347377;27;20106;-70
2022/06/21 01:18:22;;;;;;;9.50;3.45;;;;;;;;;;5346927;27;20039;-70
2022/06/21 01:20:55;;;;;;;7.07;3.83;;;;;;;;;;5346694;27;20146;-71
2022/06/21 01:23:33;;;;;;;8.20;3.25;;;;;;;;;;5346583;27;20055;-70
2022/06/21 01:26:04;;;;;;;8.02;3.58;;;;;;;;;;5346441;27;20098;-70
2022/06/21 01:28:35;;;;;;;9.45;3.90;;;;;;;;;;5346884;27;20102;-70
2022/06/21 01:31:07;;;;;;;10.02;3.78;;;;;;;;;;5347305;27;20039;-70
2022/06/21 01:33:39;;;;;;;10.32;3.88;;;;;;;;;;5346108;27;20023;-69
2022/06/21 01:36:18;;;;;;;10.43;3.50;;;;;;;;;;5346930;27;20382;-70
2022/06/21 01:38:56;;;;;;;7.30;3.50;;;;;;;;;;5347212;27;20023;-69
2022/06/21 01:41:30;;;;;;;12.57;4.35;;;;;;;;;;5345643;27;20110;-70
2022/06/21 01:44:05;;;;;;;9.43;4.00;;;;;;;;;;5346579;27;20031;-70
2022/06/21 01:46:37;;;;;;;11.43;3.58;;;;;;;;;;5346001;27;20502;-70
2022/06/21 01:49:10;;;;;;;8.65;3.80;;;;;;;;;;5346650;27;20118;-70
2022/06/21 01:51:43;;;;;;;7.78;3.90;;;;;;;;;;5346804;27;20453;-70
2022/06/21 01:54:17;;;;;;;12.98;4.07;;;;;;;;;;5345706;27;20489;-69
2022/06/21 01:56:49;;;;;;;15.07;4.45;;;;;;;;;;5346294;27;20023;-70
2022/06/21 01:59:26;;;;;;;7.80;3.38;;;;;;;;;;5346190;27;20015;-70
2022/06/21 02:01:59;;;;;;;8.48;4.25;;;;;;;;;;5346139;27;20019;-70
2022/06/21 02:04:44;;;;;;;12.02;3.83;;;;;;;;;;5346268;27;20015;-69
2022/06/21 02:07:18;;;;;;;17.45;4.35;;;;;;;;;;5345561;27;20026;-69
2022/06/21 02:10:12;;;;;;;9.65;4.30;;;;;;;;;;5345962;27;20454;-70
2022/06/21 02:12:49;;;;;;;11.40;4.50;;;;;;;;;;5298455;27;20050;-70
2022/06/21 02:15:37;;;;;;;8.90;4.07;;;;;;;;;;5344899;27;20609;-69
2022/06/21 02:18:09;;;;;;;10.10;4.03;;;;;;;;;;5346234;27;20370;-70
2022/06/21 02:20:43;;;;;;;16.85;5.07;;;;;;;;;;5346310;27;20023;-70
2022/06/21 02:23:16;;;;;;;11.48;4.43;;;;;;;;;;5345122;27;20050;-70
2022/06/21 02:25:47;;;;;;;8.30;4.40;;;;;;;;;;5345981;27;20090;-70
2022/06/21 02:28:19;;;;;;;10.48;4.28;;;;;;;;;;5345847;27;20168;-70
2022/06/21 02:30:52;;;;;;;10.18;4.00;;;;;;;;;;5345542;27;20015;-70
2022/06/21 02:33:28;;;;;;;9.13;4.60;;;;;;;;;;5345423;27;20019;-70
2022/06/21 02:36:01;;;;;;;11.07;4.50;;;;;;;;;;5345280;27;20099;-70
2022/06/21 02:38:35;;;;;;;11.45;4.50;;;;;;;;;;5345642;27;20465;-69
2022/06/21 02:41:12;;;;;;;10.85;3.90;;;;;;;;;;5345888;27;20067;-70
2022/06/21 02:43:48;;;;;;;11.27;4.07;;;;;;;;;;5344986;27;20022;-70
2022/06/21 02:46:22;;;;;;;9.93;4.18;;;;;;;;;;5345216;27;20023;-70
2022/06/21 02:49:03;;;;;;;13.00;4.38;;;;;;;;;;5345843;27;20018;-70
2022/06/21 02:51:43;;;;;;;9.75;4.50;;;;;;;;;;5344898;27;20011;-70
2022/06/21 02:54:22;;;;;;;10.18;5.15;;;;;;;;;;5345604;27;20019;-70
2022/06/21 02:56:53;;;;;;;18.33;6.10;;;;;;;;;;5345071;27;20171;-70
2022/06/21 02:59:25;;;;;;;8.93;3.95;;;;;;;;;;5345182;27;20174;-70
2022/06/21 03:01:58;;;;;;;11.77;5.43;;;;;;;;;;5345715;27;20271;-70
2022/06/21 03:04:35;;;;;;;12.80;5.63;;;;;;;;;;5344154;27;20026;-69
2022/06/21 03:07:07;;;;;;;8.63;5.07;;;;;;;;;;5345299;27;20384;-70
2022/06/21 03:09:38;;;;;;;10.95;5.43;;;;;;;;;;5345181;27;20015;-70
2022/06/21 03:12:11;;;;;;;13.80;4.78;;;;;;;;;;5344625;27;20462;-70
2022/06/21 03:14:42;;;;;;;8.75;4.80;;;;;;;;;;5345246;27;20018;-70
2022/06/21 03:17:14;;;;;;;12.55;5.00;;;;;;;;;;5344769;27;20032;-69
2022/06/21 03:19:50;;;;;;;10.68;4.97;;;;;;;;;;5344337;27;20043;-70
2022/06/21 03:22:31;;;;;;;9.23;4.53;;;;;;;;;;5344760;28;20066;-70
2022/06/21 03:25:04;;;;;;;10.10;4.68;;;;;;;;;;5344807;27;20102;-70
2022/06/21 03:27:47;;;;;;;8.98;4.45;;;;;;;;;;5344962;27;20011;-69
2022/06/21 03:30:19;;;;;;;10.65;4.70;;;;;;;;;;5344603;27;20050;-70
2022/06/21 03:32:52;;;;;;;12.90;6.05;;;;;;;;;;5344723;28;20396;-70
2022/06/21 03:35:24;;;;;;;9.77;5.97;;;;;;;;;;5344875;28;20351;-70
2022/06/21 03:37:55;;;;;;;15.25;7.40;;;;;;;;;;5345295;27;20087;-70
2022/06/21 03:43:21;;;;;;;14.02;6.88;;;;;;;;;;5344926;27;20634;-70
2022/06/21 03:45:55;;;;;;;16.23;6.13;;;;;;;;;;5345321;27;20019;-70
2022/06/21 03:48:33;;;;;;;11.38;6.57;;;;;;;;;;5343899;28;20054;-69
2022/06/21 03:51:09;;;;;;;17.52;6.65;;;;;;;;;;5344908;27;20043;-70
2022/06/21 03:53:46;;;;;;;13.48;6.78;;;;;;;;;;5344023;28;20029;-70
2022/06/21 03:56:23;;;;;;;11.82;6.78;;;;;;;;;;5344793;28;20466;-70
2022/06/21 03:59:00;;;;;;;12.77;6.80;;;;;;;;;;5345118;28;20015;-70
2022/06/21 04:01:46;;;;;;;16.90;6.70;;;;;;;;;;5343884;28;20385;-70
2022/06/21 04:04:25;;;;;;;14.35;7.60;;;;;;;;;;5344844;28;20041;-70
2022/06/21 04:07:03;;;;;;;10.52;6.40;;;;;;;;;;5345010;28;20012;-69
2022/06/21 04:09:42;;;;;;;12.63;6.80;;;;;;;;;;5343838;28;20378;-70
2022/06/21 04:12:14;;;;;;;;;;;;;;;;;;5345032;27;20411;-71
2022/06/21 04:14:48;;;;;;;8.60;5.97;;;;;;;;;;5344035;27;19904;-70
2022/06/21 04:17:22;;;;;;;11.43;7.25;;;;;;;;;;5344238;28;20562;-70
2022/06/21 04:19:56;;;;;;;12.02;6.75;;;;;;;;;;5344964;28;20026;-70
2022/06/21 04:22:43;;;;;;;13.63;7.18;;;;;;;;;;5343405;28;20456;-69
2022/06/21 04:25:16;;;;;;;13.65;7.13;;;;;;;;;;5344734;27;20533;-70
2022/06/21 04:27:56;;;;;;;13.95;6.90;;;;;;;;;;5344639;27;20011;-70
2022/06/21 04:30:46;;;;;;;13.85;6.82;;;;;;;;;;5346493;27;20019;-70
2022/06/21 04:33:20;;;;;;;14.98;7.00;;;;;;;;;;5348450;27;20030;-70
2022/06/21 04:35:56;;;;;;;11.00;6.82;;;;;;;;;;5347975;27;20398;-70
2022/06/21 04:38:36;;;;;;;10.40;6.32;;;;;;;;;;5347954;27;20168;-70
2022/06/21 04:41:34;;;;;;;13.88;6.82;;;;;;;;;;5347973;27;20027;-70
2022/06/21 04:44:11;;;;;;;9.50;6.13;;;;;;;;;;5307694;27;20035;-70
2022/06/21 04:46:53;;;;;;;9.35;5.68;;;;;;;;;;5348028;27;20019;-71
2022/06/21 04:49:31;;;;;;;10.00;6.28;;;;;;;;;;5347603;27;20028;-71
2022/06/21 04:52:11;;;;;;;12.10;5.28;;;;;;;;;;5348097;27;20011;-71
2022/06/21 04:54:43;;;;;;;8.63;5.03;;;;;;;;;;5348141;27;20513;-70
2022/06/21 04:57:17;;;;;;;9.70;4.88;;;;;;;;;;5346823;27;20115;-70
2022/06/21 04:59:52;;;;;;;14.07;5.78;;;;;;;;;;5347688;27;20043;-70
2022/06/21 05:02:29;;;;;;;9.13;5.18;;;;;;;;;;5347207;27;20023;-70
2022/06/21 05:05:03;;;;;;;11.45;5.28;;;;;;;;;;5347143;27;20026;-69
2022/06/21 05:07:44;;;;;;;7.90;4.82;;;;;;;;;;5347763;27;20470;-70
2022/06/21 05:10:19;;;;;;;10.30;5.25;;;;;;;;;;5347451;27;20418;-69
2022/06/21 05:12:51;;;;;;;9.32;5.18;;;;;;;;;;5346869;27;20023;-70
2022/06/21 05:15:25;;;;;;;11.25;5.30;;;;;;;;;;5347315;27;20102;-69
2022/06/21 05:17:58;;;;;;;11.02;5.30;;;;;;;;;;5346937;27;20031;-69
2022/06/21 05:20:31;;;;;;;15.30;4.88;;;;;;;;;;5347016;27;20019;-69
2022/06/21 05:23:05;;;;;;;12.88;5.22;;;;;;;;;;5347251;27;20051;-69
2022/06/21 05:25:41;;;;;;;9.40;4.55;;;;;;;;;;5346571;27;20050;-69
2022/06/21 05:28:31;;;;;;;8.43;4.25;;;;;;;;;;5347142;27;20027;-69
2022/06/21 05:31:08;;;;;;;9.82;3.72;;;;;;;;;;5346905;27;20030;-70
2022/06/21 05:33:58;;;;;;;5.75;2.45;;;;;;;;;;5346493;27;20396;-70
2022/06/21 05:36:39;;;;;;;12.30;2.70;;;;;;;;;;5346679;27;20450;-70
2022/06/21 05:39:20;;;;;;;10.93;2.60;;;;;;;;;;5346235;27;20015;-70
2022/06/21 05:41:52;;;;;;;10.48;2.65;;;;;;;;;;5347315;27;20031;-70
2022/06/21 05:44:44;;;;;;;6.53;2.50;;;;;;;;;;5346414;27;20106;-70
2022/06/21 05:47:18;;;;;;;6.90;2.60;;;;;;;;;;5345962;27;20369;-70
2022/06/21 05:49:50;;;;;;;6.07;2.17;;;;;;;;;;5347004;27;20378;-69
2022/06/21 05:52:33;;;;;;;9.52;2.03;;;;;;;;;;5346499;27;20029;-70
2022/06/21 05:55:07;;;;;;;8.27;2.00;;;;;;;;;;5346087;27;20015;-70
2022/06/21 05:58:02;;;;;;;5.85;2.00;;;;;;;;;;5346529;27;20047;-69
2022/06/21 06:00:38;;;;;;;9.52;1.92;;;;;;;;;;5331815;27;20031;-70
2022/06/21 06:03:14;;;;;;;6.18;2.15;;;;;;;;;;5346598;27;20466;-69
2022/06/21 06:05:46;;;;;;;7.88;1.92;;;;;;;;;;5346485;27;20015;-70
2022/06/21 06:08:26;;;;;;;7.15;2.08;;;;;;;;;;5346108;27;20048;-70
2022/06/21 06:10:58;;;;;;;8.07;2.03;;;;;;;;;;5346470;27;20094;-69
2022/06/21 06:13:32;;;;;;;5.13;2.38;;;;;;;;;;5346071;27;20011;-70
2022/06/21 06:16:10;;;;;;;5.90;2.08;;;;;;;;;;5345436;27;20051;-70
2022/06/21 06:18:49;;;;;;;6.10;1.60;;;;;;;;;;5346056;27;20079;-69
2022/06/21 06:21:23;;;;;;;7.32;2.00;;;;;;;;;;5344588;27;20151;-70
2022/06/21 06:24:00;;;;;;;10.05;2.30;;;;;;;;;;5346228;27;20023;-70
2022/06/21 06:26:33;;;;;;;4.55;1.90;;;;;;;;;;5345776;27;20076;-70
2022/06/21 06:29:15;;;;;;;8.57;1.50;;;;;;;;;;5345013;27;20051;-70
2022/06/21 06:32:05;;;;;;;8.27;1.73;;;;;;;;;;5345805;27;20047;-69
2022/06/21 06:34:39;;;;;;;4.50;1.15;;;;;;;;;;5345726;27;20023;-69
2022/06/21 06:37:25;;;;;;;9.05;1.55;;;;;;;;;;5344994;27;20473;-69
2022/06/21 06:39:56;;;;;;;6.95;1.02;;;;;;;;;;5346028;27;20023;-70
2022/06/21 06:42:29;;;;;;;3.95;0.93;;;;;;;;;;5344466;27;20015;-70
2022/06/21 06:45:02;;;;;;;6.25;1.33;;;;;;;;;;5345534;27;20072;-69
2022/06/21 06:47:36;;;;;;;6.22;1.00;;;;;;;;;;5345643;27;20019;-70
2022/06/21 06:50:24;;;;;;;11.15;0.90;;;;;;;;;;5344663;27;20034;-70
2022/06/21 06:53:03;;;;;;;8.05;1.02;;;;;;;;;;5345518;27;20098;-69
2022/06/21 06:55:44;;;;;;;6.50;1.08;;;;;;;;;;5345453;27;20016;-69
2022/06/21 06:58:15;;;;;;;7.97;1.20;;;;;;;;;;5344428;27;20111;-70
2022/06/21 07:00:48;;;;;;;5.80;1.00;;;;;;;;;;5345156;27;20106;-70
2022/06/21 07:03:21;;;;;;;5.30;0.90;;;;;;;;;;5344458;27;20352;-70
2022/06/21 07:05:55;;;;;;;5.38;1.83;;;;;;;;;;5345785;27;20423;-69
2022/06/21 07:08:31;;;;;;;6.43;0.95;;;;;;;;;;5345003;27;20019;-70
2022/06/21 07:11:04;;;;;;;3.50;0.82;;;;;;;;;;5344502;27;20382;-70
2022/06/21 07:13:35;;;;;;;5.10;1.00;;;;;;;;;;5344957;27;20026;-70
2022/06/21 07:16:11;;;;;;;7.78;1.20;;;;;;;;;;5345168;27;20470;-70
2022/06/21 07:18:47;;;;;;;6.30;1.52;;;;;;;;;;5344869;27;20031;-69
2022/06/21 07:21:21;;;;;;;9.95;1.70;;;;;;;;;;5344600;27;20014;-70
2022/06/21 07:23:52;;;;;;;8.38;1.25;;;;;;;;;;5345217;28;20118;-70
2022/06/21 07:26:28;;;;;;;9.70;1.40;;;;;;;;;;5344159;28;20091;-69
2022/06/21 07:29:09;;;;;;;5.78;1.20;;;;;;;;;;5345437;28;20026;-69
2022/06/21 07:32:01;;;;;;;5.78;1.17;;;;;;;;;;5344247;28;20023;-70
2022/06/21 07:34:36;;;;;;;7.25;1.13;;;;;;;;;;5344811;28;20019;-70
2022/06/21 07:37:11;;;;;;;6.93;1.30;;;;;;;;;;5340134;28;20474;-70
2022/06/21 07:39:48;;;;;;;7.30;1.33;;;;;;;;;;5343842;28;20019;-70
2022/06/21 07:42:24;;;;;;;5.35;1.40;;;;;;;;;;5344501;28;20080;-70
2022/06/21 07:45:00;;;;;;;5.90;1.10;;;;;;;;;;5345326;28;20064;-72
2022/06/21 07:47:37;;;;;;;6.63;1.50;;;;;;;;;;5343908;28;20546;-72
2022/06/21 07:50:11;;;;;;;7.80;1.30;;;;;;;;;;5344876;28;20058;-72
2022/06/21 07:52:55;;;;;;;9.07;1.02;;;;;;;;;;5343849;28;20018;-72
2022/06/21 07:55:33;;;;;;;10.73;2.15;;;;;;;;;;5344685;28;20369;-72
2022/06/21 07:58:11;;;;;;;5.03;0.90;;;;;;;;;;5344923;28;20059;-72
2022/06/21 08:06:43;;;;;;;6.18;1.52;;;;;;;;;;5348136;27;20114;-72
2022/06/21 08:09:14;;;;;;;8.00;1.10;;;;;;;;;;5348828;27;20110;-72
2022/06/21 08:11:46;;;;;;;7.90;1.40;;;;;;;;;;5349264;27;20152;-72
2022/06/21 08:14:18;;;;;;;6.85;1.27;;;;;;;;;;5347906;27;20110;-72
2022/06/21 08:16:53;;;;;;;7.43;1.50;;;;;;;;;;5348839;27;20115;-72
2022/06/21 08:19:35;;;;;;;6.93;1.20;;;;;;;;;;5348267;27;20023;-71
2022/06/21 08:22:13;;;;;;;7.55;1.65;;;;;;;;;;5347485;27;20047;-68
2022/06/21 08:24:54;;;;;;;7.78;1.38;;;;;;;;;;5348625;27;20072;-68
2022/06/21 08:27:25;;;;;;;4.93;0.90;;;;;;;;;;5348022;27;20034;-68
2022/06/21 08:30:15;;;;;;;6.43;1.25;;;;;;;;;;5348003;27;20016;-68
2022/06/21 08:33:04;;;;;;;4.75;1.05;;;;;;;;;;5348521;27;20019;-68
2022/06/21 08:35:42;;;;;;;8.23;1.08;;;;;;;;;;5347476;27;20479;-70
2022/06/21 08:38:36;;;;;;;5.20;1.10;;;;;;;;;;5348282;27;20055;-69
2022/06/21 08:41:52;;;;;;;8.77;1.30;;;;;;;;;;5299876;27;20023;-71
2022/06/21 08:44:38;;;;;;;6.47;1.15;;;;;;;;;;5267650;27;20027;-70
2022/06/21 08:47:24;;;;;;;5.80;1.27;;;;;;;;;;5347878;27;20477;-73
2022/06/21 08:49:58;;;;;;;4.65;0.90;;;;;;;;;;5347583;27;20034;-72
2022/06/21 08:52:34;;;;;;;5.00;0.80;;;;;;;;;;5347748;27;20019;-73
2022/06/21 08:55:29;;;;;;;6.82;1.77;;;;;;;;;;5347764;27;20023;-73
2022/06/21 08:58:09;;;;;;;4.90;1.00;;;;;;;;;;5347071;27;20489;-72
2022/06/21 09:00:45;;;;;;;6.28;1.10;;;;;;;;;;5347798;27;20415;-72
2022/06/21 09:03:23;;;;;;;4.47;0.95;;;;;;;;;;5346873;27;20072;-74
2022/06/21 09:06:01;;;;;;;6.28;1.38;;;;;;;;;;5347904;27;20027;-74
2022/06/21 09:08:32;;;;;;;8.38;1.75;;;;;;;;;;5347550;27;20035;-74
2022/06/21 09:11:06;;;;;;;7.72;1.25;;;;;;;;;;5346962;27;20019;-74
2022/06/21 09:13:53;;;;;;;4.07;1.13;;;;;;;;;;5347410;27;20099;-74
2022/06/21 09:16:43;;;;;;;6.80;0.90;;;;;;;;;;5346481;27;20027;-74
2022/06/21 09:19:37;;;;;;;5.50;0.80;;;;;;;;;;5347435;27;20047;-78
2022/06/21 09:22:09;;;;;;;7.18;1.08;;;;;;;;;;5346603;27;20047;-75
2022/06/21 09:24:42;;;;;;;5.88;1.10;;;;;;;;;;5346033;27;20358;-77
2022/06/21 09:27:16;;;;;;;6.45;1.00;;;;;;;;;;5347275;27;20046;-75
2022/06/21 09:29:50;;;;;;;3.30;0.93;;;;;;;;;;5347113;27;20373;-72
2022/06/21 09:32:34;;;;;;;4.80;1.00;;;;;;;;;;5345856;27;20079;-72
2022/06/21 09:35:05;;;;;;;3.95;1.20;;;;;;;;;;5346847;27;20110;-69
2022/06/21 09:37:49;;;;;;;5.13;1.07;;;;;;;;;;5346016;27;20118;-69
2022/06/21 09:40:35;;;;;;;5.38;0.85;;;;;;;;;;5345833;27;20057;-70
2022/06/21 09:43:22;;;;;;;7.65;1.48;;;;;;;;;;5346228;27;20080;-72
2022/06/21 09:45:59;;;;;;;10.57;1.50;;;;;;;;;;5346533;27;20019;-72
2022/06/21 09:48:33;;;;;;;6.32;1.00;;;;;;;;;;5346529;27;20071;-69
2022/06/21 09:51:10;;;;;;;5.53;0.70;;;;;;;;;;5346683;27;20031;-72
2022/06/21 09:53:50;;;;;;;5.10;0.70;;;;;;;;;;5344386;27;20030;-71
2022/06/21 09:56:21;;;;;;;5.47;0.73;;;;;;;;;;5345916;27;20106;-71
2022/06/21 09:58:52;;;;;;;11.55;1.40;;;;;;;;;;5346217;27;20110;-71
2022/06/21 10:01:34;;;;;;;5.10;0.95;;;;;;;;;;5345094;27;20019;-71
2022/06/21 10:04:05;;;;;;;9.88;1.30;;;;;;;;;;5346435;27;20023;-71
2022/06/21 10:06:43;;;;;;;9.40;1.25;;;;;;;;;;5345597;27;20405;-71
2022/06/21 10:09:24;;;;;;;5.88;1.27;;;;;;;;;;5346467;27;20019;-70
2022/06/21 10:12:06;;;;;;;7.07;1.13;;;;;;;;;;5346428;27;20019;-71
2022/06/21 10:14:37;;;;;;;6.55;1.02;;;;;;;;;;5345071;27;20027;-71
2022/06/21 10:17:13;;;;;;;4.32;1.25;;;;;;;;;;5346029;27;20031;-71
2022/06/21 10:19:44;;;;;;;4.63;1.02;;;;;;;;;;5346001;27;20023;-71
2022/06/21 10:22:18;;;;;;;7.03;1.63;;;;;;;;;;5345215;27;20397;-71
2022/06/21 10:24:49;;;;;;;6.63;1.13;;;;;;;;;;5346311;27;20103;-71
2022/06/21 10:27:23;;;;;;;5.63;1.60;;;;;;;;;;5344002;27;20100;-71
2022/06/21 10:30:01;;;;;;;5.55;1.20;;;;;;;;;;5346230;27;20361;-71
2022/06/21 10:32:35;;;;;;;5.50;1.38;;;;;;;;;;5345820;27;20023;-71
2022/06/21 10:35:18;;;;;;;5.90;1.35;;;;;;;;;;5345075;27;20469;-71
2022/06/21 10:38:07;;;;;;;7.18;1.67;;;;;;;;;;5346247;27;20038;-71
2022/06/21 10:40:58;;;;;;;4.53;1.40;;;;;;;;;;5345893;27;20031;-70
2022/06/21 10:43:39;;;;;;;5.50;1.50;;;;;;;;;;5344578;27;20017;-71
2022/06/21 10:46:13;;;;;;;4.93;1.17;;;;;;;;;;5345927;27;20056;-71
2022/06/21 10:48:57;;;;;;;7.95;2.00;;;;;;;;;;5344956;27;20015;-71
2022/06/21 10:51:40;;;;;;;6.35;1.35;;;;;;;;;;5345464;27;20015;-71
2022/06/21 10:54:20;;;;;;;4.95;1.40;;;;;;;;;;5345585;27;20027;-71
2022/06/21 10:57:12;;;;;;;6.78;1.60;;;;;;;;;;5344787;27;20030;-71
2022/06/21 11:02:45;;;;;;;7.18;1.58;;;;;;;;;;5344873;27;20034;-71
2022/06/21 11:05:22;;;;;;;6.00;1.65;;;;;;;;;;5345574;27;20026;-70
2022/06/21 11:07:59;;;;;;;5.18;1.42;;;;;;;;;;5345740;27;20499;-71
2022/06/21 11:10:50;;;;;;;5.75;1.52;;;;;;;;;;5344211;27;20027;-70
2022/06/21 11:13:25;;;;;;;6.50;1.48;;;;;;;;;;5344186;27;20038;-71
2022/06/21 11:16:00;;;;;;;7.60;1.55;;;;;;;;;;5345472;27;20498;-71
2022/06/21 11:18:47;;;;;;;3.60;1.02;;;;;;;;;;5344190;27;20390;-71
2022/06/21 11:21:24;;;;;;;5.55;1.48;;;;;;;;;;5344783;27;20027;-71
2022/06/21 11:24:19;;;;;;;6.50;1.45;;;;;;;;;;5344843;28;20494;-71
2022/06/21 11:26:56;;;;;;;7.30;1.42;;;;;;;;;;5345400;28;20423;-71
2022/06/21 11:29:27;;;;;;;7.45;2.00;;;;;;;;;;5344434;28;20054;-71
2022/06/21 11:32:17;;;;;;;11.87;2.83;;;;;;;;;;5344472;28;20049;-71
2022/06/21 11:35:07;;;;;;;4.15;1.73;;;;;;;;;;5345052;28;20265;-71
2022/06/21 11:37:44;;;;;;;7.57;1.90;;;;;;;;;;5344251;27;20111;-71
2022/06/21 11:40:25;;;;;;;4.50;1.38;;;;;;;;;;5349590;27;20378;-72
2022/06/21 11:42:57;;;;;;;7.25;1.48;;;;;;;;;;5349772;27;20106;-71
2022/06/21 11:45:45;;;;;;;7.05;1.33;;;;;;;;;;5348214;27;20019;-71
2022/06/21 11:48:21;;;;;;;5.77;1.33;;;;;;;;;;5349229;27;20110;-71
2022/06/21 11:51:10;;;;;;;4.15;1.50;;;;;;;;;;5349986;27;20106;-71
2022/06/21 11:53:44;;;;;;;5.55;1.50;;;;;;;;;;5348545;27;20145;-71
2022/06/21 11:56:34;;;;;;;7.40;1.83;;;;;;;;;;5349151;27;20019;-71
2022/06/21 11:59:12;;;;;;;4.95;1.88;;;;;;;;;;5348269;27;20107;-71
2022/06/21 12:01:55;;;;;;;6.97;2.15;;;;;;;;;;5349146;27;20046;-71
2022/06/21 12:04:29;;;;;;;5.18;1.50;;;;;;;;;;5348640;27;20027;-72
2022/06/21 12:07:13;;;;;;;6.57;1.50;;;;;;;;;;5348073;27;20027;-71
2022/06/21 12:09:56;;;;;;;4.72;1.20;;;;;;;;;;5348828;27;20019;-71
2022/06/21 12:12:39;;;;;;;3.92;1.05;;;;;;;;;;5348473;27;20060;-71
2022/06/21 12:15:22;;;;;;;5.15;1.17;;;;;;;;;;5348775;27;20019;-71
2022/06/21 12:17:55;;;;;;;5.20;1.08;;;;;;;;;;5349113;27;20039;-71
2022/06/21 12:20:29;;;;;;;5.90;1.20;;;;;;;;;;5347467;27;20012;-70
2022/06/21 12:23:06;;;;;;;6.72;1.80;;;;;;;;;;5348674;27;20554;-71
2022/06/21 12:25:38;;;;;;;6.82;1.90;;;;;;;;;;5348364;27;20489;-70
2022/06/21 12:28:14;;;;;;;8.80;2.08;;;;;;;;;;5347653;27;20088;-71
2022/06/21 12:30:46;;;;;;;5.70;1.13;;;;;;;;;;5348367;27;20019;-71
2022/06/21 12:33:20;;;;;;;4.43;1.20;;;;;;;;;;5348334;27;20071;-71
2022/06/21 12:36:14;;;;;;;3.53;0.85;;;;;;;;;;5347841;27;20507;-70
2022/06/21 12:38:49;;;;;;;4.28;0.60;;;;;;;;;;5348384;27;20385;-71
2022/06/21 12:41:26;;;;;;;3.35;0.60;;;;;;;;;;5347162;27;20350;-71
2022/06/21 12:43:58;;;;;;;3.80;0.87;;;;;;;;;;5348551;27;20072;-71
2022/06/21 12:46:31;;;;;;;6.65;1.33;;;;;;;;;;5347543;27;20382;-71
2022/06/21 12:49:06;;;;;;;4.28;0.70;;;;;;;;;;5347273;27;20449;-71
2022/06/21 12:51:40;;;;;;;6.03;0.90;;;;;;;;;;5347469;27;20419;-71
2022/06/21 12:54:22;;;;;;;5.13;0.85;;;;;;;;;;5347864;27;20111;-71
2022/06/21 12:56:56;;;;;;;5.40;1.00;;;;;;;;;;5347107;27;20027;-71
2022/06/21 12:59:38;;;;;;;4.95;0.90;;;;;;;;;;5347617;27;20034;-70
2022/06/21 13:02:28;;;;;;;4.13;0.90;;;;;;;;;;5347166;27;20107;-71
2022/06/21 13:05:18;;;;;;;5.55;1.10;;;;;;;;;;5348069;27;20526;-70
2022/06/21 13:08:08;;;;;;;5.40;0.60;;;;;;;;;;5347805;27;20023;-71
2022/06/21 13:10:39;;;;;;;5.68;0.65;;;;;;;;;;5347016;27;20454;-70
2022/06/21 13:13:29;;;;;;;3.43;0.50;;;;;;;;;;5347559;27;20029;-71
2022/06/21 13:16:06;;;;;;;5.70;0.60;;;;;;;;;;5346613;27;20265;-71
2022/06/21 13:18:52;;;;;;;2.40;0.63;;;;;;;;;;5347104;27;20122;-71
2022/06/21 13:21:38;;;;;;;2.35;0.50;;;;;;;;;;5347124;27;20043;-71
2022/06/21 13:24:28;;;;;;;3.92;0.65;;;;;;;;;;5346446;27;20026;-70
2022/06/21 13:27:05;;;;;;;3.55;0.45;;;;;;;;;;5347711;27;20027;-71
2022/06/21 13:29:48;;;;;;;4.28;0.50;;;;;;;;;;5347085;27;20026;-71
2022/06/21 13:32:24;;;;;;;3.00;0.93;;;;;;;;;;5345896;27;20448;-71
2022/06/21 13:34:58;;;;;;;7.68;0.57;;;;;;;;;;5347672;27;20016;-71
2022/06/21 13:37:31;;;;;;;2.40;0.70;;;;;;;;;;5345977;27;20038;-70
2022/06/21 13:40:05;;;;;;;4.75;0.70;;;;;;;;;;5347165;27;20090;-71
2022/06/21 13:42:40;;;;;;;3.47;0.50;;;;;;;;;;5347076;27;20058;-70
2022/06/21 13:45:11;;;;;;;4.35;0.55;;;;;;;;;;5346042;27;20015;-71
2022/06/21 13:47:42;;;;;;;4.28;0.70;;;;;;;;;;5346710;27;20019;-71
2022/06/21 13:50:14;;;;;;;3.08;0.50;;;;;;;;;;5346582;27;20015;-71
2022/06/21 13:52:53;;;;;;;2.80;0.45;;;;;;;;;;5345555;27;20035;-71
2022/06/21 13:55:31;;;;;;;3.05;0.65;;;;;;;;;;5346067;27;20026;-70
2022/06/21 13:58:16;;;;;;;1.98;0.40;;;;;;;;;;5345863;27;20027;-71
2022/06/21 14:01:10;;;;;;;3.95;0.60;;;;;;;;;;5346113;27;20023;-71
2022/06/21 14:03:54;;;;;;;2.80;0.52;;;;;;;;;;5298377;27;20038;-71
2022/06/21 14:06:28;;;;;;;4.63;0.40;;;;;;;;;;5345435;27;20031;-71
2022/06/21 14:09:22;;;;;;;2.80;0.30;;;;;;;;;;5346760;27;20011;-71
2022/06/21 14:12:34;;;;;;;4.65;0.50;;;;;;;;;;5346382;27;20011;-71
2022/06/21 14:15:18;;;;;;;3.42;0.50;;;;;;;;;;5238645;28;20029;-71
2022/06/21 14:17:58;;;;;;;2.63;0.50;;;;;;;;;;5238949;28;20056;-71
2022/06/21 14:20:34;;;;;;;3.65;0.40;;;;;;;;;;5314328;27;20397;-71
2022/06/21 14:23:24;;;;;;;1.67;0.30;;;;;;;;;;5345923;27;20050;-71
2022/06/21 14:26:01;;;;;;;5.35;0.50;;;;;;;;;;5346535;27;20045;-71
2022/06/21 14:28:37;;;;;;;5.25;0.85;;;;;;;;;;5344957;27;20027;-71
2022/06/21 14:31:27;;;;;;;4.28;0.30;;;;;;;;;;5346107;27;20019;-71
2022/06/21 14:33:58;;;;;;;4.00;0.68;;;;;;;;;;5345488;27;20467;-71
2022/06/21 14:36:29;;;;;;;3.05;0.40;;;;;;;;;;5345605;27;20076;-71
2022/06/21 14:39:35;;;;;;;5.47;0.37;;;;;;;;;;5345898;27;20114;-71
2022/06/21 14:42:19;;;;;;;4.18;0.30;;;;;;;;;;5290419;27;20261;-72
2022/06/21 14:45:09;;;;;;;2.03;0.50;;;;;;;;;;5345991;27;20107;-71
2022/06/21 14:47:43;;;;;;;4.25;0.40;;;;;;;;;;5345022;27;20079;-72
2022/06/21 14:50:33;;;;;;;4.75;0.40;;;;;;;;;;5345541;27;20015;-71
2022/06/21 14:53:08;;;;;;;4.32;0.35;;;;;;;;;;5345631;27;20023;-71
2022/06/21 14:55:47;;;;;;;4.10;0.38;;;;;;;;;;5344553;27;20084;-71
2022/06/21 14:58:35;;;;;;;4.07;0.30;;;;;;;;;;5345486;27;20467;-71
2022/06/21 15:01:19;;;;;;;3.13;0.40;;;;;;;;;;5345421;27;20023;-71
2022/06/21 15:03:55;;;;;;;2.83;0.30;;;;;;;;;;5345056;27;20444;-71
2022/06/21 15:06:28;;;;;;;3.90;0.40;;;;;;;;;;5344963;27;20454;-70
2022/06/21 15:09:00;;;;;;;4.25;0.40;;;;;;;;;;5344914;27;20015;-70
2022/06/21 15:14:40;;;;;;;6.85;0.35;;;;;;;;;;5344846;27;20689;-71
2022/06/21 15:17:11;;;;;;;3.83;0.40;;;;;;;;;;5344613;27;20107;-71
2022/06/21 15:20:05;;;;;;;2.88;0.40;;;;;;;;;;5345336;27;20019;-71
2022/06/21 15:22:52;;;;;;;4.10;0.40;;;;;;;;;;5344206;27;20559;-71
2022/06/21 15:25:40;;;;;;;2.03;0.30;;;;;;;;;;5344885;28;20031;-71
2022/06/21 15:28:11;;;;;;;3.35;0.40;;;;;;;;;;5345239;28;20023;-71
2022/06/21 15:30:44;;;;;;;2.42;0.40;;;;;;;;;;5344329;28;20102;-71
2022/06/21 15:33:23;;;;;;;2.95;0.40;;;;;;;;;;5344916;28;20020;-71
2022/06/21 15:35:54;;;;;;;;;;;;;;;;;;5346002;28;20473;-71
2022/06/21 15:38:29;;;;;;;5.25;0.40;;;;;;;;;;5344013;28;19984;-71
2022/06/21 15:41:00;;;;;;;3.10;0.47;;;;;;;;;;5345393;28;20019;-71
2022/06/21 15:43:32;;;;;;;3.78;0.40;;;;;;;;;;5344388;28;20130;-71
2022/06/21 15:46:25;;;;;;;4.82;0.50;;;;;;;;;;5344947;28;20016;-71
2022/06/21 15:52:13;;;;;;;5.60;0.80;;;;;;;;;;5344597;28;20031;-71
2022/06/21 15:54:49;;;;;;;4.32;0.50;;;;;;;;;;5344872;28;20030;-70
2022/06/21 15:57:43;;;;;;;7.70;0.52;;;;;;;;;;5344251;28;20046;-70
2022/06/21 16:00:17;;;;;;;7.60;0.52;;;;;;;;;;5296904;28;20058;-70
2022/06/21 16:03:04;;;;;;;4.45;0.50;;;;;;;;;;5344443;28;20018;-70